Time;durP1;ratioP1;P1;durP2;ratioP2;P2;SDS_P1;SDS_P2;PMS_P1;PMS_P2;Temp;Humidity;BMP_temperature;BMP_pressure;BME280_temperature;BME280_humidity;BME280_pressure;Samples;Min_cycle;Max_cycle;Signal;HPM_P1;HPM_P2
2021/10/26 00:01:03;;;;;;;5.87;2.60;;;15.20;69.60;;;;;;2369148;53;21005;-72
2021/10/26 00:03:29;;;;;;;4.22;2.67;;;15.10;69.50;;;;;;2371738;53;21025;-70
2021/10/26 00:05:56;;;;;;;4.55;2.97;;;15.20;69.60;;;;;;2371875;53;21018;-70
2021/10/26 00:08:22;;;;;;;5.90;2.92;;;15.10;69.50;;;;;;2371557;53;20998;-73
2021/10/26 00:10:50;;;;;;;5.47;3.40;;;15.10;69.60;;;;;;2371518;53;20986;-74
2021/10/26 00:13:16;;;;;;;6.62;3.58;;;15.10;69.60;;;;;;2372335;53;20953;-72
2021/10/26 00:15:43;;;;;;;6.57;3.50;;;15.10;69.60;;;;;;2371088;53;20945;-73
2021/10/26 00:18:10;;;;;;;5.55;3.17;;;15.10;69.60;;;;;;2346169;53;20933;-69
2021/10/26 00:20:36;;;;;;;4.80;3.08;;;15.10;69.70;;;;;;2514484;52;20940;-73
2021/10/26 00:23:03;;;;;;;4.82;2.70;;;15.10;69.80;;;;;;2356740;53;20926;-71
2021/10/26 00:25:29;;;;;;;5.28;3.00;;;15.10;70.00;;;;;;2374296;53;21010;-68
2021/10/26 00:27:56;;;;;;;6.25;3.10;;;15.10;70.10;;;;;;2352970;53;20981;-71
2021/10/26 00:30:23;;;;;;;4.43;2.55;;;15.10;70.20;;;;;;2348786;54;20937;-75
2021/10/26 00:32:49;;;;;;;6.00;3.20;;;15.10;70.30;;;;;;2393010;53;20997;-72
2021/10/26 00:35:16;;;;;;;4.18;2.47;;;15.10;70.30;;;;;;2356904;53;21168;-72
2021/10/26 00:37:44;;;;;;;5.72;2.80;;;15.20;70.50;;;;;;2356625;53;20946;-72
2021/10/26 00:40:12;;;;;;;4.87;2.50;;;15.20;70.60;;;;;;2372176;53;20965;-72
2021/10/26 00:42:38;;;;;;;4.53;2.55;;;15.20;70.60;;;;;;2360495;53;21011;-73
2021/10/26 00:45:05;;;;;;;5.57;3.08;;;15.20;70.60;;;;;;2362208;53;21678;-73
2021/10/26 00:47:34;;;;;;;6.50;3.40;;;15.30;70.70;;;;;;2371624;53;20918;-72
2021/10/26 00:50:00;;;;;;;5.75;3.20;;;15.30;70.70;;;;;;2368125;53;21059;-70
2021/10/26 00:52:27;;;;;;;7.40;2.90;;;15.30;70.70;;;;;;2354561;53;20950;-72
2021/10/26 00:54:53;;;;;;;5.45;3.12;;;15.30;70.60;;;;;;2395798;52;20950;-74
2021/10/26 00:57:25;;;;;;;5.43;3.15;;;15.30;70.50;;;;;;2371050;53;20926;-72
2021/10/26 00:59:51;;;;;;;4.25;2.45;;;15.30;70.40;;;;;;2344122;54;20995;-74
2021/10/26 01:02:20;;;;;;;6.10;2.87;;;15.30;70.30;;;;;;2341318;54;20903;-69
2021/10/26 01:04:46;;;;;;;6.97;3.60;;;15.40;70.30;;;;;;2370155;53;20973;-75
2021/10/26 01:07:13;;;;;;;6.20;3.15;;;15.40;70.30;;;;;;2360424;53;20971;-71
2021/10/26 01:09:39;;;;;;;4.82;2.85;;;15.30;70.20;;;;;;2363997;53;20929;-70
2021/10/26 01:12:06;;;;;;;4.75;2.70;;;15.30;70.20;;;;;;2341274;54;20924;-71
2021/10/26 01:14:36;;;;;;;4.12;2.40;;;15.30;70.30;;;;;;2360664;53;21007;-72
2021/10/26 01:17:09;;;;;;;5.40;2.45;;;15.30;70.40;;;;;;2362549;53;20982;-72
2021/10/26 01:19:56;;;;;;;3.58;2.33;;;15.30;70.40;;;;;;2443133;52;20942;-73
2021/10/26 01:22:26;;;;;;;5.55;2.45;;;15.40;70.30;;;;;;2597321;52;20971;-70
2021/10/26 01:24:55;;;;;;;4.07;2.30;;;15.30;70.50;;;;;;2350622;53;21070;-71
2021/10/26 01:27:22;;;;;;;4.25;2.10;;;15.40;70.60;;;;;;2341260;54;20955;-70
2021/10/26 01:29:48;;;;;;;4.60;2.37;;;15.30;70.60;;;;;;2592803;52;21034;-73
2021/10/26 01:32:15;;;;;;;3.53;2.10;;;15.40;70.70;;;;;;2373997;53;21494;-71
2021/10/26 01:34:42;;;;;;;4.22;2.42;;;15.40;70.70;;;;;;2349425;53;20934;-73
2021/10/26 01:37:09;;;;;;;4.00;2.10;;;15.40;70.70;;;;;;2349903;54;20991;-72
2021/10/26 01:39:36;;;;;;;4.80;2.42;;;15.40;70.70;;;;;;2371868;53;21736;-73
2021/10/26 01:42:05;;;;;;;4.72;2.50;;;15.40;70.60;;;;;;2368618;53;21007;-70
2021/10/26 01:44:31;;;;;;;3.92;2.25;;;15.40;70.60;;;;;;2346822;53;20995;-71
2021/10/26 01:46:58;;;;;;;4.45;2.37;;;15.40;70.60;;;;;;2345880;53;20964;-73
2021/10/26 01:49:24;;;;;;;4.75;2.72;;;15.40;70.60;;;;;;2364333;53;20922;-71
2021/10/26 01:51:51;;;;;;;5.25;2.55;;;15.40;70.50;;;;;;2599107;52;20992;-72
2021/10/26 01:54:18;;;;;;;3.80;2.17;;;15.40;70.50;;;;;;2474329;52;20962;-72
2021/10/26 01:56:45;;;;;;;4.25;2.65;;;15.40;70.40;;;;;;2370956;53;20930;-70
2021/10/26 01:59:12;;;;;;;6.25;2.78;;;15.40;70.40;;;;;;2371054;53;21005;-71
2021/10/26 02:01:40;;;;;;;4.70;2.75;;;15.40;70.40;;;;;;2353176;54;20941;-70
2021/10/26 02:04:09;;;;;;;5.00;3.00;;;15.40;70.30;;;;;;2354521;53;21065;-71
2021/10/26 02:06:36;;;;;;;4.35;2.58;;;15.40;70.30;;;;;;2357849;53;20920;-74
2021/10/26 02:09:03;;;;;;;4.85;2.58;;;15.40;70.40;;;;;;2378841;53;20948;-71
2021/10/26 02:11:29;;;;;;;3.92;2.42;;;15.30;70.20;;;;;;2359444;53;21029;-71
2021/10/26 02:13:56;;;;;;;4.87;2.35;;;15.30;70.30;;;;;;2380225;52;20962;-71
2021/10/26 02:16:22;;;;;;;3.75;2.05;;;15.30;70.30;;;;;;2371453;53;21005;-71
2021/10/26 02:19:04;;;;;;;5.40;2.45;;;15.30;70.30;;;;;;2335261;54;20909;-73
2021/10/26 02:21:30;;;;;;;5.00;2.37;;;15.30;70.00;;;;;;2369910;53;21458;-69
2021/10/26 02:23:56;;;;;;;4.07;2.58;;;15.30;70.20;;;;;;2371525;53;20997;-72
2021/10/26 02:26:22;;;;;;;4.05;2.30;;;15.30;70.30;;;;;;2347131;53;21074;-72
2021/10/26 02:28:49;;;;;;;5.10;2.40;;;15.30;70.30;;;;;;2486572;53;20956;-72
2021/10/26 02:31:15;;;;;;;3.97;2.20;;;15.20;70.20;;;;;;2354847;53;21067;-70
2021/10/26 02:33:42;;;;;;;4.97;2.03;;;15.20;70.30;;;;;;2348029;53;21463;-71
2021/10/26 02:36:09;;;;;;;4.95;2.12;;;15.20;70.30;;;;;;2349605;53;21653;-71
2021/10/26 02:38:35;;;;;;;3.60;1.80;;;15.20;70.40;;;;;;2420797;53;20975;-71
2021/10/26 02:41:04;;;;;;;5.45;2.33;;;15.20;70.50;;;;;;2372400;54;20939;-73
2021/10/26 02:43:33;;;;;;;4.35;2.53;;;15.20;70.50;;;;;;2364166;53;20938;-71
2021/10/26 02:46:02;;;;;;;5.60;2.63;;;15.20;70.40;;;;;;2370607;53;21021;-72
2021/10/26 02:48:29;;;;;;;4.87;2.37;;;15.10;70.20;;;;;;2409018;52;22226;-73
2021/10/26 02:50:56;;;;;;;4.43;2.20;;;15.20;70.30;;;;;;2370996;53;20997;-72
2021/10/26 02:53:23;;;;;;;4.50;2.20;;;15.10;70.20;;;;;;2371658;53;21002;-71
2021/10/26 02:55:50;;;;;;;4.90;2.37;;;15.10;70.50;;;;;;2533045;52;20942;-71
2021/10/26 02:58:17;;;;;;;4.25;2.50;;;15.10;70.30;;;;;;2352031;53;20936;-71
2021/10/26 03:00:45;;;;;;;5.43;2.15;;;15.10;70.20;;;;;;2371551;53;21486;-73
2021/10/26 03:03:11;;;;;;;4.60;2.15;;;15.00;70.10;;;;;;2394284;52;21080;-72
2021/10/26 03:05:37;;;;;;;4.03;2.30;;;15.00;70.10;;;;;;2353350;53;20946;-70
2021/10/26 03:08:03;;;;;;;5.15;2.62;;;15.00;70.20;;;;;;2371608;53;20937;-71
2021/10/26 03:10:30;;;;;;;4.93;2.12;;;15.00;70.20;;;;;;2346816;53;21116;-72
2021/10/26 03:13:25;;;;;;;4.80;2.10;;;15.00;70.30;;;;;;2357266;53;21452;-70
2021/10/26 03:15:51;;;;;;;4.15;2.40;;;14.90;69.90;;;;;;2361402;53;20939;-70
2021/10/26 03:18:20;;;;;;;4.85;2.20;;;14.90;70.20;;;;;;2360592;53;20977;-72
2021/10/26 03:20:46;;;;;;;3.58;2.20;;;14.90;70.20;;;;;;2436506;52;20925;-71
2021/10/26 03:23:13;;;;;;;3.37;1.85;;;14.90;70.30;;;;;;2371518;53;20946;-73
2021/10/26 03:25:41;;;;;;;4.53;2.22;;;14.90;70.30;;;;;;2595465;52;20985;-73
2021/10/26 03:28:10;;;;;;;5.07;2.65;;;14.90;70.30;;;;;;2371560;53;21029;-72
2021/10/26 03:30:36;;;;;;;4.00;2.40;;;14.80;70.20;;;;;;2588564;52;20913;-72
2021/10/26 03:33:03;;;;;;;3.90;2.00;;;14.80;70.30;;;;;;2341030;54;21413;-73
2021/10/26 03:35:29;;;;;;;4.10;2.10;;;14.80;70.30;;;;;;2343340;54;21119;-71
2021/10/26 03:37:57;;;;;;;3.80;1.98;;;14.80;70.40;;;;;;2371862;53;20933;-72
2021/10/26 03:40:23;;;;;;;6.28;2.83;;;14.80;70.50;;;;;;2371644;53;21391;-71
2021/10/26 03:42:50;;;;;;;3.62;2.10;;;14.80;70.60;;;;;;2368671;53;21015;-71
2021/10/26 03:45:17;;;;;;;4.55;2.42;;;14.80;70.60;;;;;;2347151;53;20933;-72
2021/10/26 03:47:45;;;;;;;5.75;2.40;;;14.70;70.50;;;;;;2421925;52;21025;-71
2021/10/26 03:50:11;;;;;;;3.83;2.30;;;14.80;70.60;;;;;;2341550;53;21457;-73
2021/10/26 03:52:38;;;;;;;4.18;2.58;;;14.70;70.40;;;;;;2363037;53;21021;-71
2021/10/26 03:55:05;;;;;;;4.43;2.40;;;14.70;70.40;;;;;;2371031;53;20965;-70
2021/10/26 03:57:31;;;;;;;3.92;2.33;;;14.70;70.40;;;;;;2372148;53;20970;-72
2021/10/26 03:59:57;;;;;;;5.00;2.40;;;14.70;70.40;;;;;;2349124;54;20939;-70
2021/10/26 04:02:27;;;;;;;3.60;2.10;;;14.70;70.30;;;;;;2607907;52;20968;-71
2021/10/26 04:05:00;;;;;;;3.85;2.15;;;14.60;70.20;;;;;;2342791;53;21920;-73
2021/10/26 04:07:27;;;;;;;4.00;2.05;;;14.60;70.20;;;;;;2359514;53;21011;-70
2021/10/26 04:10:04;;;;;;;4.60;2.40;;;14.60;70.10;;;;;;2588786;52;21129;-72
2021/10/26 04:12:32;;;;;;;3.90;2.25;;;14.60;70.00;;;;;;2347353;53;20976;-72
2021/10/26 04:14:58;;;;;;;3.78;2.12;;;14.50;69.80;;;;;;2437297;53;20956;-72
2021/10/26 04:17:26;;;;;;;5.93;2.75;;;14.50;69.90;;;;;;2327632;54;21157;-71
2021/10/26 04:19:57;;;;;;;6.50;3.03;;;14.50;69.90;;;;;;2395995;52;20949;-71
2021/10/26 04:22:24;;;;;;;4.78;2.67;;;14.50;70.00;;;;;;2340084;53;21747;-73
2021/10/26 04:24:50;;;;;;;5.40;2.83;;;14.40;70.00;;;;;;2328598;54;21040;-71
2021/10/26 04:27:20;;;;;;;4.60;2.53;;;14.40;70.00;;;;;;2406503;53;20975;-71
2021/10/26 04:29:46;;;;;;;4.53;2.67;;;14.40;70.10;;;;;;2399933;53;21010;-71
2021/10/26 04:32:13;;;;;;;4.95;2.70;;;14.40;70.20;;;;;;2330209;54;20985;-72
2021/10/26 04:34:41;;;;;;;5.53;2.50;;;14.30;70.30;;;;;;2321239;54;21405;-72
2021/10/26 04:37:09;;;;;;;4.28;2.40;;;14.30;70.40;;;;;;2451323;52;20959;-71
2021/10/26 04:39:35;;;;;;;4.60;2.55;;;14.30;70.50;;;;;;2346024;53;22082;-71
2021/10/26 04:42:06;;;;;;;5.72;2.80;;;14.30;70.60;;;;;;2342009;53;21345;-70
2021/10/26 04:44:35;;;;;;;5.40;3.05;;;14.30;70.60;;;;;;2347596;53;21036;-72
2021/10/26 04:47:02;;;;;;;7.85;3.03;;;14.30;70.60;;;;;;2429914;53;21855;-72
2021/10/26 04:49:32;;;;;;;6.00;3.92;;;14.30;70.60;;;;;;2418918;52;21348;-70
2021/10/26 04:52:02;;;;;;;6.60;3.70;;;14.30;70.60;;;;;;2357055;53;21411;-73
2021/10/26 04:54:28;;;;;;;5.80;3.30;;;14.30;70.70;;;;;;2498191;52;21924;-71
2021/10/26 04:56:57;;;;;;;6.70;3.25;;;14.30;70.90;;;;;;2345450;53;21649;-72
2021/10/26 04:59:25;;;;;;;7.20;3.20;;;14.30;71.00;;;;;;2350172;53;21041;-73
2021/10/26 05:01:51;;;;;;;5.37;2.90;;;14.40;71.20;;;;;;2406470;52;20927;-72
2021/10/26 05:04:18;;;;;;;5.82;3.28;;;14.40;71.30;;;;;;2335987;53;20911;-72
2021/10/26 05:06:44;;;;;;;5.68;3.25;;;14.40;71.40;;;;;;2337268;53;21003;-71
2021/10/26 05:09:11;;;;;;;5.82;3.53;;;14.40;71.40;;;;;;2435262;52;21026;-70
2021/10/26 05:11:38;;;;;;;5.40;3.42;;;14.40;71.50;;;;;;2351174;53;21350;-71
2021/10/26 05:14:04;;;;;;;4.82;2.62;;;14.50;71.60;;;;;;2376143;53;21000;-71
2021/10/26 05:16:32;;;;;;;4.43;2.65;;;14.50;71.60;;;;;;2328928;54;20972;-72
2021/10/26 05:19:01;;;;;;;4.72;2.87;;;14.50;71.60;;;;;;2338717;53;20946;-72
2021/10/26 05:21:28;;;;;;;3.95;2.55;;;14.50;71.50;;;;;;2329899;54;20982;-73
2021/10/26 05:23:55;;;;;;;4.72;3.10;;;14.60;71.50;;;;;;2471737;53;20964;-70
2021/10/26 05:26:23;;;;;;;4.40;2.50;;;14.60;71.40;;;;;;2325158;54;21354;-72
2021/10/26 05:28:52;;;;;;;4.72;2.67;;;14.60;71.30;;;;;;2414776;52;21053;-70
2021/10/26 05:31:19;;;;;;;5.72;3.08;;;14.60;71.20;;;;;;2323371;54;20921;-71
2021/10/26 05:33:46;;;;;;;4.50;2.95;;;14.60;71.10;;;;;;2379792;54;21048;-71
2021/10/26 05:36:12;;;;;;;4.93;2.97;;;14.60;71.10;;;;;;2321384;54;21430;-72
2021/10/26 05:38:42;;;;;;;5.85;3.40;;;14.60;71.00;;;;;;2338291;53;21005;-71
2021/10/26 05:41:12;;;;;;;7.05;3.50;;;14.60;71.00;;;;;;2325614;54;20981;-70
2021/10/26 05:43:40;;;;;;;6.82;3.22;;;14.60;71.00;;;;;;2338857;53;21043;-71
2021/10/26 05:46:07;;;;;;;6.10;3.12;;;14.60;71.10;;;;;;2380180;53;21020;-72
2021/10/26 05:48:34;;;;;;;5.35;2.95;;;14.60;71.10;;;;;;2342231;53;21102;-72
2021/10/26 05:51:01;;;;;;;5.32;3.00;;;14.60;71.10;;;;;;2495246;53;21767;-72
2021/10/26 05:53:29;;;;;;;6.37;3.40;;;14.60;71.20;;;;;;2433565;53;20959;-71
2021/10/26 05:55:55;;;;;;;5.97;3.80;;;14.60;71.10;;;;;;2350835;53;20968;-70
2021/10/26 05:58:22;;;;;;;7.68;3.37;;;14.70;71.20;;;;;;2386795;53;20916;-71
2021/10/26 06:00:48;;;;;;;5.35;3.12;;;14.70;71.20;;;;;;2351024;53;21440;-73
2021/10/26 06:03:15;;;;;;;4.85;3.15;;;14.70;71.30;;;;;;2330976;54;21024;-74
2021/10/26 06:05:42;;;;;;;6.05;3.60;;;14.70;71.30;;;;;;2320966;53;21050;-73
2021/10/26 06:08:10;;;;;;;6.43;3.10;;;14.70;71.30;;;;;;2348696;53;20943;-72
2021/10/26 06:10:42;;;;;;;5.18;3.08;;;14.70;71.40;;;;;;2349162;53;21406;-73
2021/10/26 06:13:13;;;;;;;8.03;3.70;;;14.70;71.40;;;;;;2362024;53;21285;-73
2021/10/26 06:15:39;;;;;;;6.30;3.75;;;14.70;71.50;;;;;;2354928;53;21038;-73
2021/10/26 06:18:07;;;;;;;6.62;3.97;;;14.70;71.50;;;;;;2364353;53;20978;-73
2021/10/26 06:20:34;;;;;;;5.82;3.75;;;14.70;71.60;;;;;;2342455;53;20966;-70
2021/10/26 06:23:00;;;;;;;5.65;3.53;;;14.70;71.60;;;;;;2351467;53;20942;-73
2021/10/26 06:25:27;;;;;;;5.20;3.17;;;14.80;71.70;;;;;;2353319;53;21054;-73
2021/10/26 06:27:54;;;;;;;7.65;3.90;;;14.80;71.70;;;;;;2363284;53;20967;-72
2021/10/26 06:30:21;;;;;;;6.40;3.97;;;14.80;71.70;;;;;;2324441;54;21765;-74
2021/10/26 06:32:47;;;;;;;6.80;4.43;;;14.80;71.70;;;;;;2341517;54;20949;-73
2021/10/26 06:35:13;;;;;;;7.68;3.85;;;14.80;71.70;;;;;;2341419;53;20939;-70
2021/10/26 06:37:42;;;;;;;7.65;4.50;;;14.80;71.70;;;;;;2328724;53;21808;-73
2021/10/26 06:40:11;;;;;;;6.75;3.72;;;14.90;71.80;;;;;;2349799;53;21006;-71
2021/10/26 06:42:38;;;;;;;7.53;3.67;;;14.90;71.80;;;;;;2347497;53;21867;-70
2021/10/26 06:45:07;;;;;;;9.18;4.35;;;14.90;71.80;;;;;;2355950;53;20954;-71
2021/10/26 06:47:38;;;;;;;6.10;3.97;;;14.90;71.90;;;;;;2440647;53;20958;-73
2021/10/26 06:50:07;;;;;;;7.57;4.93;;;14.90;72.00;;;;;;2345990;53;20933;-73
2021/10/26 06:52:34;;;;;;;8.57;5.90;;;15.00;72.10;;;;;;2346006;53;21502;-73
2021/10/26 06:55:05;;;;;;;8.38;4.90;;;15.00;72.00;;;;;;2347064;53;20979;-71
2021/10/26 06:57:32;;;;;;;7.07;4.10;;;15.00;72.00;;;;;;2363373;53;21794;-72
2021/10/26 06:59:59;;;;;;;6.20;3.67;;;15.10;72.10;;;;;;2430348;53;21017;-71
2021/10/26 07:02:27;;;;;;;5.37;3.58;;;15.10;72.10;;;;;;2343144;53;20933;-72
2021/10/26 07:04:59;;;;;;;5.40;2.95;;;15.10;72.10;;;;;;2323533;54;21814;-73
2021/10/26 07:07:26;;;;;;;4.30;2.42;;;15.20;72.10;;;;;;2325149;54;20999;-72
2021/10/26 07:09:52;;;;;;;5.20;2.95;;;15.20;72.10;;;;;;2345961;53;21023;-73
2021/10/26 07:12:20;;;;;;;4.45;2.50;;;15.20;72.10;;;;;;2350686;53;21045;-71
2021/10/26 07:14:46;;;;;;;4.70;2.60;;;15.30;72.10;;;;;;2349877;53;20955;-73
2021/10/26 07:17:13;;;;;;;5.43;2.65;;;15.30;72.10;;;;;;2393258;52;20932;-73
2021/10/26 07:19:39;;;;;;;4.55;2.28;;;15.30;72.10;;;;;;2360732;52;20942;-73
2021/10/26 07:22:06;;;;;;;5.60;2.90;;;15.30;72.10;;;;;;2466681;52;20923;-71
2021/10/26 07:24:33;;;;;;;6.00;2.90;;;15.40;72.10;;;;;;2341923;53;21109;-74
2021/10/26 07:26:59;;;;;;;4.40;2.47;;;15.40;72.10;;;;;;2515461;52;21054;-74
2021/10/26 07:29:26;;;;;;;6.12;2.35;;;15.40;72.10;;;;;;2438300;52;21876;-71
2021/10/26 07:31:54;;;;;;;6.15;2.62;;;15.50;72.20;;;;;;2374923;53;20917;-70
2021/10/26 07:34:23;;;;;;;5.57;2.42;;;15.50;72.10;;;;;;2371605;53;20946;-72
2021/10/26 07:36:51;;;;;;;4.55;2.40;;;15.50;72.00;;;;;;2371468;53;21794;-72
2021/10/26 07:39:33;;;;;;;5.85;2.65;;;15.50;72.10;;;;;;2608668;52;20961;-72
2021/10/26 07:42:03;;;;;;;6.12;3.70;;;15.60;72.10;;;;;;2440767;52;20965;-74
2021/10/26 07:44:29;;;;;;;6.82;3.92;;;15.60;72.10;;;;;;2371611;53;21037;-71
2021/10/26 07:47:00;;;;;;;6.57;3.10;;;15.70;72.10;;;;;;2371256;53;20959;-74
2021/10/26 07:49:28;;;;;;;4.28;2.70;;;15.70;72.10;;;;;;2370894;53;20929;-71
2021/10/26 07:51:54;;;;;;;7.07;2.40;;;15.70;72.10;;;;;;2598412;52;21470;-72
2021/10/26 07:54:23;;;;;;;4.70;2.53;;;15.80;72.20;;;;;;2501666;52;20919;-71
2021/10/26 07:57:05;;;;;;;4.95;2.50;;;15.80;72.10;;;;;;2371440;53;20937;-72
2021/10/26 07:59:31;;;;;;;4.45;2.20;;;15.90;72.10;;;;;;2351287;53;22000;-73
2021/10/26 08:01:59;;;;;;;5.30;2.20;;;15.90;72.00;;;;;;2352440;53;20942;-73
2021/10/26 08:04:27;;;;;;;4.12;2.08;;;15.90;72.00;;;;;;2351189;53;20975;-71
2021/10/26 08:06:54;;;;;;;4.75;2.17;;;16.00;72.10;;;;;;2367394;52;21584;-72
2021/10/26 08:09:21;;;;;;;5.72;2.53;;;16.00;72.10;;;;;;2366311;53;20946;-73
2021/10/26 08:11:48;;;;;;;7.87;3.45;;;16.00;72.10;;;;;;2455165;52;20980;-72
2021/10/26 08:14:16;;;;;;;8.63;4.53;;;16.00;72.00;;;;;;2346654;53;20948;-72
2021/10/26 08:16:42;;;;;;;11.68;5.78;;;16.10;72.80;;;;;;2359921;53;20942;-72
2021/10/26 08:19:09;;;;;;;17.20;8.23;;;16.10;72.10;;;;;;2331971;54;20954;-73
2021/10/26 08:21:36;;;;;;;30.52;14.27;;;16.20;72.30;;;;;;2369423;53;20933;-73
2021/10/26 08:24:02;;;;;;;31.33;16.45;;;16.20;73.00;;;;;;2352306;53;20982;-71
2021/10/26 08:26:37;;;;;;;24.15;13.32;;;16.30;72.30;;;;;;2456791;53;21114;-73
2021/10/26 08:29:35;;;;;;;24.37;14.07;;;16.30;72.30;;;;;;2353253;54;21439;-74
2021/10/26 08:35:50;;;;;;;22.87;13.48;;;16.40;72.20;;;;;;2358858;53;21027;-74
2021/10/26 08:38:17;;;;;;;21.42;13.10;;;16.50;72.30;;;;;;2383273;53;20976;-73
2021/10/26 08:40:49;;;;;;;15.15;8.75;;;16.50;72.30;;;;;;2425816;53;20951;-72
2021/10/26 08:43:19;;;;;;;12.07;6.85;;;16.60;72.40;;;;;;2368854;53;20962;-72
2021/10/26 08:45:48;;;;;;;9.35;5.80;;;16.60;72.20;;;;;;2374104;53;21581;-73
2021/10/26 08:48:21;;;;;;;6.72;4.28;;;16.60;72.30;;;;;;2479900;52;21011;-71
2021/10/26 08:50:52;;;;;;;7.75;3.55;;;16.70;72.40;;;;;;2357448;54;21923;-73
2021/10/26 08:53:19;;;;;;;6.05;3.58;;;16.70;72.50;;;;;;2388014;53;20958;-72
2021/10/26 08:55:56;;;;;;;6.15;3.22;;;16.80;72.60;;;;;;2371193;53;20930;-73
2021/10/26 08:58:29;;;;;;;6.97;3.35;;;16.90;72.60;;;;;;2367843;52;1916720;-72
2021/10/26 09:00:56;;;;;;;6.93;3.00;;;16.90;72.20;;;;;;2371097;53;20989;-73
2021/10/26 09:03:24;;;;;;;6.80;2.80;;;17.00;72.40;;;;;;2371609;53;21242;-74
2021/10/26 09:05:51;;;;;;;5.60;2.72;;;17.00;72.20;;;;;;2370690;53;20946;-74
2021/10/26 09:08:28;;;;;;;3.72;1.98;;;17.10;72.20;;;;;;2368766;52;20939;-74
2021/10/26 09:10:57;;;;;;;4.97;2.17;;;17.10;71.80;;;;;;2340848;53;21006;-73
2021/10/26 09:18:02;;;;;;;4.62;1.90;;;17.20;71.70;;;;;;2488071;52;21013;-74
2021/10/26 09:20:31;;;;;;;5.87;1.70;;;17.30;71.10;;;;;;2372306;53;20989;-72
2021/10/26 09:22:58;;;;;;;5.12;2.00;;;17.40;72.10;;;;;;2334712;54;20967;-73
2021/10/26 09:25:32;;;;;;;4.47;2.10;;;17.40;72.00;;;;;;2489936;53;20979;-72
2021/10/26 09:28:16;;;;;;;7.45;1.80;;;17.50;71.70;;;;;;2408914;52;21003;-72
2021/10/26 09:31:32;;;;;;;3.75;1.77;;;17.50;71.40;;;;;;2370727;53;20946;-72
2021/10/26 09:34:04;;;;;;;4.00;1.90;;;17.60;71.50;;;;;;2552193;52;20973;-73
2021/10/26 09:36:37;;;;;;;4.25;1.90;;;17.60;71.50;;;;;;2512465;52;21471;-72
2021/10/26 09:39:26;;;;;;;;;;;17.70;71.30;;;;;;2358788;53;20914;-74
2021/10/26 09:42:06;;;;;;;4.50;1.85;;;17.70;70.40;;;;;;2420714;52;20068;-70
2021/10/26 09:44:44;;;;;;;4.85;1.92;;;17.80;71.00;;;;;;2348125;53;21053;-73
2021/10/26 09:47:23;;;;;;;3.78;1.73;;;17.80;70.70;;;;;;2447527;52;21049;-74
2021/10/26 09:50:00;;;;;;;3.55;2.05;;;17.80;70.80;;;;;;2364013;53;20991;-75
2021/10/26 09:52:39;;;;;;;4.97;2.62;;;17.80;70.60;;;;;;2327120;55;20983;-73
2021/10/26 09:55:13;;;;;;;4.70;2.40;;;17.80;70.30;;;;;;2387984;53;21001;-71
2021/10/26 09:57:53;;;;;;;4.20;1.90;;;17.90;71.30;;;;;;2383645;52;20957;-73
2021/10/26 10:00:42;;;;;;;4.75;2.30;;;17.90;70.30;;;;;;2366348;53;21007;-73
2021/10/26 10:03:11;;;;;;;4.12;2.25;;;17.90;70.50;;;;;;2391403;53;20934;-72
2021/10/26 10:05:51;;;;;;;4.18;1.85;;;17.90;70.30;;;;;;2374808;53;21577;-73
2021/10/26 10:08:51;;;;;;;3.75;2.00;;;17.90;70.20;;;;;;2418592;53;21452;-74
2021/10/26 10:11:20;;;;;;;3.25;1.80;;;18.00;70.30;;;;;;2422424;52;21007;-72
2021/10/26 10:14:05;;;;;;;5.03;1.62;;;18.00;70.10;;;;;;2368330;53;21021;-72
2021/10/26 10:16:31;;;;;;;4.37;2.15;;;18.00;69.40;;;;;;2332951;54;20998;-73
2021/10/26 10:18:58;;;;;;;6.62;1.85;;;18.00;70.20;;;;;;2475770;52;20933;-71
2021/10/26 10:21:26;;;;;;;4.20;1.95;;;18.10;70.30;;;;;;2352360;53;21019;-73
2021/10/26 10:23:54;;;;;;;4.03;2.00;;;18.10;70.30;;;;;;2374810;53;21551;-73
2021/10/26 10:26:25;;;;;;;3.42;1.70;;;18.10;70.30;;;;;;2340764;54;20939;-74
2021/10/26 10:28:51;;;;;;;3.60;1.70;;;18.20;70.20;;;;;;2354910;53;21103;-74
2021/10/26 10:31:25;;;;;;;4.15;1.85;;;18.20;70.40;;;;;;2354994;53;20979;-71
2021/10/26 10:33:54;;;;;;;4.47;1.87;;;18.30;70.40;;;;;;2375478;52;21050;-71
2021/10/26 10:36:21;;;;;;;5.82;2.00;;;18.30;70.10;;;;;;2473412;52;20983;-73
2021/10/26 10:38:53;;;;;;;6.10;2.00;;;18.30;69.70;;;;;;2353508;53;20937;-73
2021/10/26 10:41:38;;;;;;;3.58;1.65;;;18.40;69.20;;;;;;2365652;53;20931;-72
2021/10/26 10:44:36;;;;;;;3.35;1.42;;;18.40;68.40;;;;;;2351549;54;20958;-72
2021/10/26 10:47:03;;;;;;;4.95;2.55;;;18.40;69.00;;;;;;2357000;53;20938;-74
2021/10/26 10:49:47;;;;;;;4.10;2.17;;;18.40;69.00;;;;;;2337654;54;20918;-74
2021/10/26 10:52:18;;;;;;;4.15;1.50;;;18.50;68.00;;;;;;2367149;53;20926;-72
2021/10/26 10:54:54;;;;;;;3.22;1.40;;;18.50;68.50;;;;;;2498210;52;20954;-74
2021/10/26 10:57:41;;;;;;;3.92;1.52;;;18.40;68.70;;;;;;2373896;53;21807;-72
2021/10/26 11:00:34;;;;;;;3.72;1.48;;;18.40;67.50;;;;;;2332557;54;21081;-72
2021/10/26 11:03:00;;;;;;;;;;;18.50;67.70;;;;;;2362101;53;20898;-72
2021/10/26 11:06:00;;;;;;;2.95;1.37;;;18.50;67.60;;;;;;2371734;53;20146;-73
2021/10/26 11:08:44;;;;;;;3.33;1.37;;;18.50;67.10;;;;;;2396191;52;21854;-72
2021/10/26 11:11:10;;;;;;;3.95;1.48;;;18.50;67.50;;;;;;2347777;54;21486;-73
2021/10/26 11:13:37;;;;;;;4.10;1.73;;;18.50;68.40;;;;;;2332032;54;21062;-73
2021/10/26 11:16:06;;;;;;;3.85;1.80;;;18.50;68.40;;;;;;2356941;53;20948;-73
2021/10/26 11:18:54;;;;;;;4.35;2.42;;;18.50;68.30;;;;;;2487855;52;20924;-72
2021/10/26 11:21:38;;;;;;;6.12;2.40;;;18.60;67.50;;;;;;2352558;53;20937;-74
2021/10/26 11:24:06;;;;;;;4.40;2.03;;;18.60;67.50;;;;;;2585679;53;21067;-71
2021/10/26 11:26:42;;;;;;;3.00;1.50;;;18.60;68.50;;;;;;2355362;53;20973;-72
2021/10/26 11:29:10;;;;;;;4.03;1.45;;;18.60;68.50;;;;;;2340297;54;20954;-74
2021/10/26 11:31:55;;;;;;;4.20;1.62;;;18.70;68.80;;;;;;2427497;52;21467;-71
2021/10/26 11:34:22;;;;;;;3.75;2.12;;;18.70;67.80;;;;;;2548679;52;20967;-73
2021/10/26 11:37:49;;;;;;;3.03;1.45;;;18.70;68.80;;;;;;2346841;54;20975;-71
2021/10/26 11:40:15;;;;;;;3.90;1.75;;;18.80;67.40;;;;;;2414958;54;21104;-72
2021/10/26 11:42:53;;;;;;;5.47;1.70;;;18.90;69.40;;;;;;2534557;53;21497;-74
2021/10/26 11:45:19;;;;;;;5.85;2.00;;;18.90;68.50;;;;;;2349948;53;20999;-73
2021/10/26 11:47:48;;;;;;;4.32;2.17;;;19.00;68.00;;;;;;2490015;52;20941;-72
2021/10/26 11:50:19;;;;;;;4.97;1.77;;;19.00;67.90;;;;;;2540012;53;20953;-75
2021/10/26 11:52:46;;;;;;;6.75;1.87;;;19.00;67.70;;;;;;2366642;53;21172;-71
2021/10/26 11:55:25;;;;;;;4.37;1.58;;;19.10;68.00;;;;;;2353586;52;20980;-75
2021/10/26 11:57:53;;;;;;;5.93;1.70;;;19.00;67.70;;;;;;2338296;54;21152;-72
2021/10/26 12:00:20;;;;;;;3.78;1.60;;;19.10;67.70;;;;;;2334764;54;20915;-71
2021/10/26 12:02:46;;;;;;;4.35;1.60;;;19.10;67.70;;;;;;2307971;54;20965;-72
2021/10/26 12:05:20;;;;;;;4.05;1.42;;;19.10;67.80;;;;;;2325593;53;20955;-72
2021/10/26 12:07:51;;;;;;;3.70;1.73;;;19.20;68.00;;;;;;2337058;53;21024;-72
2021/10/26 12:10:24;;;;;;;3.85;1.90;;;19.20;68.40;;;;;;2400904;53;21908;-73
2021/10/26 12:12:50;;;;;;;6.12;2.65;;;19.30;68.50;;;;;;2322110;54;21117;-74
2021/10/26 12:15:16;;;;;;;6.45;2.30;;;19.30;67.70;;;;;;2384612;53;21889;-71
2021/10/26 12:17:43;;;;;;;5.68;1.87;;;19.40;67.70;;;;;;2340504;53;21009;-74
2021/10/26 12:20:23;;;;;;;5.00;2.08;;;19.40;67.60;;;;;;2360498;53;21425;-72
2021/10/26 12:22:52;;;;;;;4.28;1.90;;;19.50;66.90;;;;;;2337415;53;20949;-75
2021/10/26 12:25:24;;;;;;;4.00;1.95;;;19.50;67.60;;;;;;2348535;53;21776;-74
2021/10/26 12:28:08;;;;;;;4.28;2.05;;;19.50;67.20;;;;;;2343462;53;20992;-73
2021/10/26 12:30:36;;;;;;;5.03;1.80;;;19.60;66.80;;;;;;2319715;53;21953;-72
2021/10/26 12:33:08;;;;;;;4.75;1.80;;;19.60;67.90;;;;;;2318674;54;21418;-73
2021/10/26 12:35:50;;;;;;;3.62;1.80;;;19.70;67.40;;;;;;2479933;53;20996;-71
2021/10/26 12:38:29;;;;;;;4.62;1.90;;;19.70;65.60;;;;;;2343127;53;21024;-73
2021/10/26 12:41:12;;;;;;;3.53;1.45;;;19.80;66.30;;;;;;2413211;53;20964;-71
2021/10/26 12:43:38;;;;;;;;;;;19.80;66.30;;;;;;2347166;55;21051;-74
2021/10/26 12:46:18;;;;;;;4.55;1.10;;;19.80;66.40;;;;;;2343721;55;20076;-73
2021/10/26 12:48:45;;;;;;;3.30;1.37;;;19.90;66.40;;;;;;2343565;55;21037;-72
2021/10/26 12:51:18;;;;;;;4.18;1.20;;;19.90;67.70;;;;;;2417392;53;21060;-71
2021/10/26 12:53:44;;;;;;;3.00;1.05;;;20.00;67.40;;;;;;2334272;54;20948;-73
2021/10/26 12:56:30;;;;;;;5.10;1.50;;;20.10;69.00;;;;;;2321308;54;20969;-73
2021/10/26 12:59:16;;;;;;;3.25;1.00;;;20.20;67.00;;;;;;2312377;54;20956;-74
2021/10/26 13:01:43;;;;;;;3.45;1.42;;;20.30;67.00;;;;;;2365770;53;20959;-72
2021/10/26 13:04:21;;;;;;;3.65;1.40;;;20.50;68.10;;;;;;2364664;54;20932;-75
2021/10/26 13:07:01;;;;;;;7.85;2.42;;;20.60;67.30;;;;;;2465191;53;20941;-72
2021/10/26 13:09:39;;;;;;;6.20;2.50;;;20.80;66.80;;;;;;2344164;53;21023;-72
2021/10/26 13:12:32;;;;;;;4.47;1.98;;;20.80;67.30;;;;;;2344107;53;21004;-72